Time;durP1;ratioP1;P1;durP2;ratioP2;P2;SDS_P1;SDS_P2;PMS_P1;PMS_P2;Temp;Humidity;BMP_temperature;BMP_pressure;BME280_temperature;BME280_humidity;BME280_pressure;Samples;Min_cycle;Max_cycle;Signal;HPM_P1;HPM_P2
2022/01/09 00:01:24;;;;;;;2.60;1.25;;;7.60;95.30;;;;;;5003986;28;20397;-49
2022/01/09 00:03:50;;;;;;;3.22;0.95;;;7.50;95.30;;;;;;5001821;28;20030;-49
2022/01/09 00:06:16;;;;;;;1.52;0.55;;;7.60;95.30;;;;;;5001057;28;20030;-49
2022/01/09 00:08:44;;;;;;;0.65;0.65;;;7.50;95.30;;;;;;5001717;28;20393;-49
2022/01/09 00:11:10;;;;;;;1.23;1.13;;;7.50;95.30;;;;;;5003800;28;20073;-49
2022/01/09 00:13:36;;;;;;;0.20;0.20;;;7.60;95.30;;;;;;5004067;28;20057;-49
2022/01/09 00:16:02;;;;;;;0.38;0.38;;;7.60;95.30;;;;;;5004832;28;20076;-49
2022/01/09 00:18:27;;;;;;;0.80;0.80;;;7.60;95.30;;;;;;5004316;28;20406;-50
2022/01/09 00:20:53;;;;;;;0.40;0.40;;;7.60;95.30;;;;;;5006109;28;20045;-49
2022/01/09 00:23:18;;;;;;;0.30;0.30;;;7.60;95.30;;;;;;5001008;28;20357;-50
2022/01/09 00:25:44;;;;;;;0.65;0.65;;;7.60;95.30;;;;;;5003842;28;20022;-49
2022/01/09 00:28:10;;;;;;;2.28;1.15;;;7.60;95.30;;;;;;5001715;28;20026;-49
2022/01/09 00:30:36;;;;;;;0.63;0.57;;;7.60;95.40;;;;;;5005861;28;20038;-49
2022/01/09 00:33:01;;;;;;;0.50;0.50;;;7.60;95.40;;;;;;5002102;28;20145;-49
2022/01/09 00:35:28;;;;;;;0.30;0.30;;;7.60;95.50;;;;;;5001341;28;20030;-49
2022/01/09 00:37:53;;;;;;;1.25;1.15;;;7.60;95.40;;;;;;5006329;28;20038;-50
2022/01/09 00:40:19;;;;;;;1.92;0.93;;;7.60;95.50;;;;;;5006421;28;20095;-50
2022/01/09 00:42:45;;;;;;;1.33;0.90;;;7.60;95.40;;;;;;5000721;28;20029;-49
2022/01/09 00:45:12;;;;;;;0.45;0.45;;;7.60;95.40;;;;;;5001829;28;20322;-49
2022/01/09 00:47:38;;;;;;;0.47;0.47;;;7.60;95.40;;;;;;5000754;28;20456;-49
2022/01/09 00:50:04;;;;;;;0.57;0.57;;;7.60;95.40;;;;;;5004317;28;20038;-50
2022/01/09 00:52:30;;;;;;;0.90;0.47;;;7.60;95.60;;;;;;5007294;28;20173;-50
2022/01/09 00:54:56;;;;;;;0.43;0.43;;;7.60;95.50;;;;;;5005495;28;20026;-49
2022/01/09 00:57:22;;;;;;;4.03;1.05;;;7.60;95.60;;;;;;5003366;28;20033;-50
2022/01/09 00:59:48;;;;;;;0.47;0.47;;;7.60;95.50;;;;;;5005670;28;20116;-50
2022/01/09 01:02:14;;;;;;;0.63;0.40;;;7.60;95.50;;;;;;5002317;28;20077;-50
2022/01/09 01:04:40;;;;;;;0.40;0.40;;;7.60;95.50;;;;;;5000642;28;20473;-49
2022/01/09 01:07:06;;;;;;;0.80;0.68;;;7.60;95.60;;;;;;5002060;28;20411;-49
2022/01/09 01:09:32;;;;;;;0.35;0.35;;;7.60;95.50;;;;;;5004713;28;20040;-49
2022/01/09 01:11:59;;;;;;;0.40;0.40;;;7.60;95.60;;;;;;4999360;28;20034;-49
2022/01/09 01:14:26;;;;;;;0.70;0.70;;;7.60;95.60;;;;;;5003671;28;20365;-50
2022/01/09 01:16:52;;;;;;;1.15;0.70;;;7.60;95.60;;;;;;5003345;28;20445;-49
2022/01/09 01:19:18;;;;;;;0.30;0.30;;;7.60;95.60;;;;;;5007117;28;20068;-49
2022/01/09 01:21:44;;;;;;;0.40;0.40;;;7.60;95.60;;;;;;5000087;28;20034;-50
2022/01/09 01:24:09;;;;;;;0.63;0.57;;;7.60;95.70;;;;;;5002605;28;20036;-49
2022/01/09 01:26:35;;;;;;;0.47;0.47;;;7.60;95.60;;;;;;5002035;28;20033;-49
2022/01/09 01:29:00;;;;;;;0.50;0.50;;;7.60;95.70;;;;;;5002867;28;20029;-49
2022/01/09 01:31:26;;;;;;;0.28;0.28;;;7.60;95.70;;;;;;5001529;28;20286;-49
2022/01/09 01:33:52;;;;;;;0.63;0.63;;;7.60;95.70;;;;;;5001726;28;20218;-49
2022/01/09 01:36:17;;;;;;;0.50;0.50;;;7.60;95.70;;;;;;4999206;28;20034;-49
2022/01/09 01:38:43;;;;;;;1.38;0.70;;;7.60;95.70;;;;;;5002702;28;20022;-49
2022/01/09 01:41:09;;;;;;;0.60;0.60;;;7.60;95.80;;;;;;5003520;28;20038;-49
2022/01/09 01:43:35;;;;;;;0.40;0.40;;;7.60;95.80;;;;;;4999836;28;20029;-50
2022/01/09 01:46:02;;;;;;;1.25;0.93;;;7.60;95.80;;;;;;5002685;28;20137;-49
2022/01/09 01:48:28;;;;;;;0.93;0.90;;;7.60;95.80;;;;;;5002193;28;20344;-49
2022/01/09 01:50:54;;;;;;;0.95;0.68;;;7.60;95.80;;;;;;5000240;28;20038;-49
2022/01/09 01:53:21;;;;;;;0.55;0.50;;;7.60;95.80;;;;;;5002846;28;20037;-50
2022/01/09 01:55:52;;;;;;;0.57;0.57;;;7.60;95.80;;;;;;5002604;28;20053;-49
2022/01/09 01:58:19;;;;;;;0.88;0.68;;;7.60;95.80;;;;;;5001355;28;20057;-49
2022/01/09 02:00:44;;;;;;;0.28;0.28;;;7.60;95.80;;;;;;5000824;28;20030;-49
2022/01/09 02:03:10;;;;;;;0.30;0.30;;;7.60;95.80;;;;;;5002249;28;20034;-49
2022/01/09 02:05:36;;;;;;;0.40;0.40;;;7.60;96.10;;;;;;5000782;28;20026;-49
2022/01/09 02:08:04;;;;;;;0.30;0.30;;;7.60;95.80;;;;;;5000003;28;20026;-49
2022/01/09 02:10:30;;;;;;;0.40;0.40;;;7.60;95.70;;;;;;4999443;28;20030;-50
2022/01/09 02:12:57;;;;;;;0.30;0.30;;;7.60;95.80;;;;;;5002734;28;20090;-49
2022/01/09 02:15:38;;;;;;;0.95;0.65;;;7.70;96.20;;;;;;5001780;28;20060;-50
2022/01/09 02:18:07;;;;;;;1.08;0.93;;;7.60;95.80;;;;;;4999840;28;20034;-49
2022/01/09 02:20:33;;;;;;;0.25;0.25;;;7.60;95.90;;;;;;5002543;28;20384;-49
2022/01/09 02:22:59;;;;;;;0.30;0.30;;;7.60;96.00;;;;;;5002161;28;20026;-49
2022/01/09 02:25:26;;;;;;;1.35;1.00;;;7.60;96.00;;;;;;4999533;28;20033;-49
2022/01/09 02:27:52;;;;;;;0.40;0.40;;;7.60;96.00;;;;;;5001418;28;20032;-49
2022/01/09 02:30:17;;;;;;;1.95;1.05;;;7.60;95.90;;;;;;5004959;28;20022;-49
2022/01/09 02:32:43;;;;;;;0.40;0.40;;;7.60;96.00;;;;;;4998958;28;20405;-49
2022/01/09 02:35:09;;;;;;;0.52;0.52;;;7.60;96.00;;;;;;5004239;28;20041;-49
2022/01/09 02:37:35;;;;;;;0.60;0.60;;;7.60;96.00;;;;;;4999439;28;20030;-49
2022/01/09 02:40:00;;;;;;;0.50;0.50;;;7.60;96.10;;;;;;5001736;28;20087;-49
2022/01/09 02:42:28;;;;;;;0.40;0.40;;;7.60;96.00;;;;;;4998855;28;20481;-49
2022/01/09 02:44:55;;;;;;;0.30;0.30;;;7.60;96.00;;;;;;5000936;28;20034;-49
2022/01/09 02:47:21;;;;;;;0.38;0.38;;;7.60;96.00;;;;;;5001568;28;20026;-49
2022/01/09 02:49:50;;;;;;;0.30;0.30;;;7.60;96.10;;;;;;5001574;28;20060;-49
2022/01/09 02:52:34;;;;;;;0.60;0.60;;;7.60;96.40;;;;;;5003298;28;20342;-49
2022/01/09 02:57:32;;;;;;;0.43;0.43;;;7.60;96.10;;;;;;4999684;28;20030;-49
2022/01/09 02:59:59;;;;;;;0.57;0.55;;;7.60;96.10;;;;;;5001034;28;20097;-49
2022/01/09 03:02:25;;;;;;;0.30;0.30;;;7.60;96.20;;;;;;5001105;28;20030;-49
2022/01/09 03:04:50;;;;;;;0.40;0.40;;;7.60;96.20;;;;;;5001916;28;20054;-49
2022/01/09 03:07:16;;;;;;;0.28;0.28;;;7.60;96.20;;;;;;4998686;28;20334;-49
2022/01/09 03:09:41;;;;;;;0.30;0.30;;;7.60;96.20;;;;;;5003068;28;20030;-50
2022/01/09 03:12:11;;;;;;;0.22;0.22;;;7.60;96.20;;;;;;5002541;28;20279;-50
2022/01/09 03:14:38;;;;;;;0.40;0.40;;;7.60;96.20;;;;;;5004788;28;20070;-50
2022/01/09 03:17:03;;;;;;;0.40;0.40;;;7.60;96.20;;;;;;5003917;28;20484;-50
2022/01/09 03:19:29;;;;;;;1.45;0.60;;;7.60;96.20;;;;;;5003389;28;20036;-49
2022/01/09 03:21:55;;;;;;;0.30;0.30;;;7.60;96.40;;;;;;5001449;28;20405;-49
2022/01/09 03:24:20;;;;;;;0.75;0.75;;;7.60;96.70;;;;;;5005060;28;20433;-49
2022/01/09 03:26:46;;;;;;;0.40;0.40;;;7.60;96.20;;;;;;5000179;28;20029;-49
2022/01/09 03:29:11;;;;;;;0.40;0.40;;;7.70;96.30;;;;;;5010844;28;20325;-49
2022/01/09 03:31:37;;;;;;;0.38;0.38;;;7.60;96.20;;;;;;5001428;28;20081;-49
2022/01/09 03:34:02;;;;;;;3.22;0.50;;;7.60;96.20;;;;;;5004946;28;20029;-49
2022/01/09 03:36:28;;;;;;;0.45;0.45;;;7.70;96.30;;;;;;5002962;28;20044;-49
2022/01/09 03:38:54;;;;;;;0.22;0.22;;;7.70;96.30;;;;;;5005080;28;20342;-49
2022/01/09 03:41:19;;;;;;;5.65;0.63;;;7.60;96.30;;;;;;5004460;28;20041;-49
2022/01/09 03:43:45;;;;;;;1.75;0.60;;;7.60;96.30;;;;;;5004383;28;20048;-49
2022/01/09 03:46:11;;;;;;;0.40;0.40;;;7.70;96.30;;;;;;5001847;28;20061;-50
2022/01/09 03:48:36;;;;;;;0.20;0.20;;;7.70;96.30;;;;;;5005863;28;20473;-49
2022/01/09 03:51:03;;;;;;;0.30;0.30;;;7.70;96.70;;;;;;5008463;28;20128;-49
2022/01/09 03:53:30;;;;;;;0.40;0.40;;;7.60;96.30;;;;;;5005000;28;20161;-49
2022/01/09 03:55:56;;;;;;;0.40;0.40;;;7.60;96.40;;;;;;5002933;28;20511;-49
2022/01/09 03:58:22;;;;;;;0.20;0.20;;;7.60;96.40;;;;;;5004322;28;20029;-49
2022/01/09 04:00:47;;;;;;;1.13;0.60;;;7.60;96.40;;;;;;5004210;28;20026;-50
2022/01/09 04:03:13;;;;;;;2.33;0.55;;;7.60;96.40;;;;;;5003556;28;20464;-49
2022/01/09 04:05:39;;;;;;;0.30;0.30;;;7.60;96.40;;;;;;5001902;28;20418;-50
2022/01/09 04:08:04;;;;;;;0.68;0.45;;;7.60;96.50;;;;;;5000278;28;20132;-49
2022/01/09 04:10:32;;;;;;;0.30;0.30;;;7.60;96.40;;;;;;5004566;28;20063;-49
2022/01/09 04:13:00;;;;;;;0.30;0.30;;;7.60;96.40;;;;;;5003661;28;20037;-49
2022/01/09 04:15:27;;;;;;;0.40;0.40;;;7.60;96.50;;;;;;5002365;28;20430;-50
2022/01/09 04:17:54;;;;;;;0.30;0.30;;;7.60;96.60;;;;;;5003738;28;20038;-49
2022/01/09 04:20:22;;;;;;;0.30;0.30;;;7.70;96.70;;;;;;5004601;28;20160;-49
2022/01/09 04:22:49;;;;;;;0.50;0.50;;;7.70;96.50;;;;;;4999777;28;20173;-50
2022/01/09 04:25:15;;;;;;;0.60;0.60;;;7.60;96.50;;;;;;5004238;28;20662;-50
2022/01/09 04:27:41;;;;;;;0.22;0.22;;;7.70;96.60;;;;;;5004222;28;20319;-50
2022/01/09 04:30:08;;;;;;;0.30;0.30;;;7.70;96.50;;;;;;5006125;28;20076;-51
2022/01/09 04:32:33;;;;;;;0.30;0.30;;;7.70;96.50;;;;;;5002575;28;20052;-50
2022/01/09 04:35:00;;;;;;;0.20;0.20;;;7.70;96.50;;;;;;5002679;28;20026;-49
2022/01/09 04:37:26;;;;;;;0.68;0.40;;;7.70;96.50;;;;;;5001150;28;20026;-49
2022/01/09 04:39:52;;;;;;;0.20;0.20;;;7.70;96.50;;;;;;5004858;28;20027;-49
2022/01/09 04:42:19;;;;;;;0.40;0.40;;;7.70;96.50;;;;;;5001743;28;20026;-49
2022/01/09 04:44:44;;;;;;;0.30;0.30;;;7.70;96.60;;;;;;5006353;28;20030;-50
2022/01/09 04:47:15;;;;;;;0.30;0.30;;;7.70;96.50;;;;;;5002343;28;20045;-50
2022/01/09 04:49:43;;;;;;;0.60;0.60;;;7.60;96.50;;;;;;5001762;28;20022;-49
2022/01/09 04:52:13;;;;;;;0.40;0.40;;;7.70;96.60;;;;;;5003336;28;20133;-50
2022/01/09 04:54:39;;;;;;;0.40;0.40;;;7.70;96.60;;;;;;5005234;28;20092;-49
2022/01/09 04:57:05;;;;;;;0.30;0.30;;;7.70;96.70;;;;;;5000770;28;20053;-49
2022/01/09 04:59:31;;;;;;;0.30;0.30;;;7.70;96.60;;;;;;5004744;28;20030;-49
2022/01/09 05:01:56;;;;;;;0.20;0.20;;;7.70;96.60;;;;;;5000646;28;20084;-49
2022/01/09 05:04:22;;;;;;;0.30;0.30;;;7.70;96.60;;;;;;5003465;28;20050;-49
2022/01/09 05:06:48;;;;;;;6.35;0.40;;;7.70;96.60;;;;;;5000732;28;20032;-49
2022/01/09 05:09:14;;;;;;;0.47;0.47;;;7.70;96.70;;;;;;5003632;28;20080;-50
2022/01/09 05:11:39;;;;;;;0.30;0.30;;;7.70;96.70;;;;;;4999508;28;20042;-49
2022/01/09 05:14:05;;;;;;;0.30;0.30;;;7.70;96.70;;;;;;5004332;28;20438;-49
2022/01/09 05:16:31;;;;;;;0.30;0.30;;;7.70;96.80;;;;;;5000914;28;20132;-49
2022/01/09 05:19:06;;;;;;;0.40;0.40;;;7.70;96.80;;;;;;5002935;28;20021;-49
2022/01/09 05:21:32;;;;;;;0.30;0.30;;;7.70;96.70;;;;;;5002672;28;20026;-49
2022/01/09 05:23:58;;;;;;;0.30;0.30;;;7.60;96.70;;;;;;5001646;28;20029;-50
2022/01/09 05:26:23;;;;;;;0.20;0.20;;;7.70;96.80;;;;;;4999613;28;20092;-49
2022/01/09 05:28:49;;;;;;;0.22;0.22;;;7.70;96.70;;;;;;5002383;28;20030;-50
2022/01/09 05:31:15;;;;;;;0.28;0.28;;;7.70;96.70;;;;;;5001072;28;20365;-50
2022/01/09 05:33:40;;;;;;;0.22;0.22;;;7.70;96.70;;;;;;5001855;28;20026;-49
2022/01/09 05:36:06;;;;;;;0.30;0.30;;;7.60;96.70;;;;;;5003670;28;20030;-49
2022/01/09 05:38:32;;;;;;;0.20;0.20;;;7.70;96.80;;;;;;5003233;28;20524;-49
2022/01/09 05:40:58;;;;;;;0.20;0.20;;;7.70;96.80;;;;;;5003850;28;20500;-49
2022/01/09 05:43:24;;;;;;;0.30;0.30;;;7.70;97.10;;;;;;5000724;28;20286;-49
2022/01/09 05:45:50;;;;;;;0.30;0.30;;;7.70;96.80;;;;;;5001656;28;20465;-49
2022/01/09 05:48:17;;;;;;;0.30;0.30;;;7.70;96.90;;;;;;5000035;28;20022;-50
2022/01/09 05:50:43;;;;;;;0.30;0.30;;;7.60;96.90;;;;;;5003577;28;20030;-49
2022/01/09 05:53:09;;;;;;;0.45;0.45;;;7.60;96.90;;;;;;4999182;28;20061;-50
2022/01/09 05:55:35;;;;;;;0.30;0.30;;;7.60;97.00;;;;;;5004778;28;20037;-50
2022/01/09 05:58:01;;;;;;;21.60;0.93;;;7.60;96.90;;;;;;4999970;28;20034;-50
2022/01/09 06:00:26;;;;;;;0.28;0.28;;;7.60;96.90;;;;;;5005174;28;20022;-50
2022/01/09 06:02:52;;;;;;;0.40;0.40;;;7.60;97.00;;;;;;4998302;28;20038;-49
2022/01/09 06:05:17;;;;;;;0.35;0.30;;;7.60;96.90;;;;;;5006525;28;20026;-49
2022/01/09 06:07:43;;;;;;;0.30;0.30;;;7.60;97.00;;;;;;5001969;28;20029;-49
2022/01/09 06:10:10;;;;;;;0.40;0.40;;;7.70;97.00;;;;;;4999751;28;20438;-49
2022/01/09 06:12:36;;;;;;;0.30;0.30;;;7.60;97.00;;;;;;5000648;28;20066;-49
2022/01/09 06:15:02;;;;;;;0.28;0.28;;;7.60;97.00;;;;;;5001989;28;20021;-49
2022/01/09 06:17:27;;;;;;;1.55;0.30;;;7.60;97.00;;;;;;5001239;28;20113;-50
2022/01/09 06:19:53;;;;;;;0.57;0.38;;;7.60;97.10;;;;;;5004351;28;20105;-50
2022/01/09 06:22:19;;;;;;;0.30;0.30;;;7.70;97.10;;;;;;4999121;28;20201;-49
2022/01/09 06:24:46;;;;;;;0.20;0.20;;;7.60;97.10;;;;;;4999804;28;20350;-50
2022/01/09 06:27:15;;;;;;;0.30;0.30;;;7.60;97.00;;;;;;5003270;28;20035;-49
2022/01/09 06:29:41;;;;;;;0.30;0.30;;;7.70;97.20;;;;;;5002155;28;20056;-49
2022/01/09 06:32:07;;;;;;;0.20;0.20;;;7.60;97.10;;;;;;4997130;28;20073;-49
2022/01/09 06:34:32;;;;;;;0.30;0.30;;;7.60;97.00;;;;;;4999901;28;20023;-49
2022/01/09 06:36:58;;;;;;;0.20;0.20;;;7.60;97.10;;;;;;5001555;28;20516;-49
2022/01/09 06:39:23;;;;;;;0.30;0.30;;;7.60;97.10;;;;;;5001190;28;20033;-49
2022/01/09 06:41:49;;;;;;;0.55;0.30;;;7.60;97.10;;;;;;5001641;28;20045;-49
2022/01/09 06:44:15;;;;;;;0.20;0.20;;;7.60;97.20;;;;;;5002281;28;20022;-50
2022/01/09 06:46:41;;;;;;;0.20;0.20;;;7.70;97.20;;;;;;5004809;28;20464;-49
2022/01/09 06:49:07;;;;;;;0.30;0.30;;;7.70;97.30;;;;;;5007603;28;20037;-49
2022/01/09 06:51:32;;;;;;;0.30;0.30;;;7.70;97.30;;;;;;5004841;28;20042;-49
2022/01/09 06:53:58;;;;;;;0.30;0.30;;;7.70;97.30;;;;;;5007361;28;20034;-50
2022/01/09 06:56:24;;;;;;;0.50;0.43;;;7.70;97.30;;;;;;5005618;28;20657;-50
2022/01/09 06:58:49;;;;;;;0.50;0.47;;;7.70;97.50;;;;;;5004660;28;20030;-50
2022/01/09 07:01:15;;;;;;;1.13;0.50;;;7.60;97.20;;;;;;5004332;28;20154;-49
2022/01/09 07:03:40;;;;;;;0.30;0.30;;;7.60;97.20;;;;;;5006771;28;20348;-50
2022/01/09 07:06:06;;;;;;;2.53;0.45;;;7.70;97.30;;;;;;5003367;28;20030;-49
2022/01/09 07:08:33;;;;;;;5.55;0.85;;;7.60;97.20;;;;;;5002730;28;20030;-50
2022/01/09 07:11:03;;;;;;;5.88;0.55;;;7.60;97.30;;;;;;5006679;28;20089;-49
2022/01/09 07:13:29;;;;;;;0.40;0.40;;;7.60;97.20;;;;;;5004311;28;20361;-50
2022/01/09 07:15:55;;;;;;;0.20;0.20;;;7.70;97.30;;;;;;5008187;28;20456;-50
2022/01/09 07:18:21;;;;;;;1.65;0.50;;;7.70;97.30;;;;;;5007797;28;20030;-49
2022/01/09 07:20:47;;;;;;;0.43;0.35;;;7.70;97.30;;;;;;5004345;28;20041;-50
2022/01/09 07:23:12;;;;;;;4.75;0.70;;;7.70;97.30;;;;;;5004897;28;20053;-49
2022/01/09 07:25:38;;;;;;;1.20;0.43;;;7.70;97.40;;;;;;5001888;28;20072;-49
2022/01/09 07:28:04;;;;;;;1.58;0.52;;;7.70;97.40;;;;;;5004293;28;20443;-50
2022/01/09 07:30:30;;;;;;;0.20;0.20;;;7.70;97.30;;;;;;5008082;28;20141;-49
2022/01/09 07:32:56;;;;;;;0.85;0.40;;;7.70;97.30;;;;;;5004056;28;20022;-50
2022/01/09 07:35:22;;;;;;;0.28;0.28;;;7.70;97.40;;;;;;5004443;28;20061;-50
2022/01/09 07:37:48;;;;;;;0.30;0.30;;;7.70;97.30;;;;;;5003021;28;20054;-50
2022/01/09 07:40:14;;;;;;;0.35;0.35;;;7.70;97.40;;;;;;5003805;28;20089;-50
2022/01/09 07:42:39;;;;;;;0.20;0.20;;;7.70;97.30;;;;;;5007278;28;20026;-49
2022/01/09 07:45:07;;;;;;;0.40;0.40;;;7.70;97.40;;;;;;5002647;28;20361;-49
2022/01/09 07:47:33;;;;;;;3.40;0.80;;;7.70;97.40;;;;;;5000517;28;20036;-49
2022/01/09 07:49:59;;;;;;;1.55;0.60;;;7.70;97.50;;;;;;5009137;28;20103;-49
2022/01/09 07:52:25;;;;;;;0.30;0.30;;;7.70;97.70;;;;;;5007096;28;20050;-50
2022/01/09 07:54:50;;;;;;;0.40;0.40;;;7.70;97.40;;;;;;5006015;28;20034;-50
2022/01/09 07:57:17;;;;;;;0.30;0.30;;;7.70;97.40;;;;;;5002047;28;20065;-50
2022/01/09 07:59:43;;;;;;;0.40;0.40;;;7.70;97.40;;;;;;5005716;28;20400;-50
2022/01/09 08:02:09;;;;;;;0.30;0.30;;;7.70;97.30;;;;;;5003029;28;20036;-49
2022/01/09 08:04:35;;;;;;;0.20;0.20;;;7.70;97.40;;;;;;5000720;28;20026;-49
2022/01/09 08:07:00;;;;;;;0.40;0.40;;;7.70;97.50;;;;;;5007101;28;20026;-50
2022/01/09 08:09:26;;;;;;;0.30;0.30;;;7.70;97.40;;;;;;5004036;28;20041;-50
2022/01/09 08:11:52;;;;;;;0.40;0.40;;;7.70;97.50;;;;;;5004102;28;20030;-50
2022/01/09 08:14:17;;;;;;;0.30;0.30;;;7.70;97.40;;;;;;5004521;28;20364;-49
2022/01/09 08:16:43;;;;;;;0.35;0.35;;;7.70;97.40;;;;;;5004051;28;20045;-49
2022/01/09 08:19:09;;;;;;;0.40;0.40;;;7.70;97.50;;;;;;5004954;28;20018;-49
2022/01/09 08:21:34;;;;;;;0.65;0.47;;;7.70;97.50;;;;;;5002281;28;20052;-50
2022/01/09 08:24:00;;;;;;;0.90;0.60;;;7.70;97.50;;;;;;5002885;28;20045;-50
2022/01/09 08:26:26;;;;;;;0.38;0.38;;;7.70;97.50;;;;;;5004398;28;20037;-49
2022/01/09 08:28:53;;;;;;;0.35;0.35;;;7.70;97.60;;;;;;5009055;28;20524;-50
2022/01/09 08:31:19;;;;;;;2.13;0.43;;;7.70;97.50;;;;;;5000725;28;20038;-50
2022/01/09 08:33:45;;;;;;;0.38;0.38;;;7.70;97.60;;;;;;5005648;28;20334;-49
2022/01/09 08:36:11;;;;;;;0.57;0.35;;;7.70;97.50;;;;;;5004503;28;20038;-50
2022/01/09 08:38:37;;;;;;;0.20;0.20;;;7.70;97.50;;;;;;5002007;28;20404;-49
2022/01/09 08:41:02;;;;;;;1.25;0.68;;;7.70;97.50;;;;;;5003224;28;20207;-49
2022/01/09 08:43:28;;;;;;;2.65;0.60;;;7.70;97.60;;;;;;5002769;28;20437;-49
2022/01/09 08:45:54;;;;;;;1.92;0.40;;;7.70;97.50;;;;;;5006380;28;20064;-49
2022/01/09 08:48:19;;;;;;;1.23;0.50;;;7.70;97.60;;;;;;5001521;28;20347;-49
2022/01/09 08:50:45;;;;;;;0.30;0.30;;;7.70;97.50;;;;;;5004176;28;20026;-50
2022/01/09 08:53:11;;;;;;;0.40;0.40;;;7.70;97.60;;;;;;5008483;28;20029;-50
2022/01/09 08:55:36;;;;;;;5.38;0.77;;;7.80;97.00;;;;;;5005397;28;20101;-50
2022/01/09 08:58:02;;;;;;;5.07;1.33;;;7.80;96.70;;;;;;5002469;28;20465;-49
2022/01/09 09:00:28;;;;;;;0.63;0.63;;;7.70;96.00;;;;;;5007319;28;20030;-50
2022/01/09 09:02:54;;;;;;;0.90;0.47;;;7.70;96.10;;;;;;5007840;28;20034;-50
2022/01/09 09:05:20;;;;;;;2.40;0.73;;;7.70;96.30;;;;;;5002350;28;20022;-49
2022/01/09 09:07:46;;;;;;;5.53;1.35;;;7.70;96.40;;;;;;4998246;28;20034;-49
2022/01/09 09:10:13;;;;;;;1.73;0.95;;;7.70;96.50;;;;;;5004663;28;20026;-49
2022/01/09 09:12:39;;;;;;;3.60;0.80;;;7.70;96.50;;;;;;5004142;28;20115;-49
2022/01/09 09:15:06;;;;;;;0.45;0.45;;;7.70;96.50;;;;;;5005140;28;20052;-49
2022/01/09 09:17:33;;;;;;;2.70;0.65;;;7.70;96.40;;;;;;5004528;28;20033;-49
2022/01/09 09:19:58;;;;;;;5.75;0.88;;;7.80;96.70;;;;;;5002479;28;20457;-49
2022/01/09 09:22:24;;;;;;;3.40;0.80;;;7.80;96.40;;;;;;5006649;28;20087;-49
2022/01/09 09:24:50;;;;;;;2.67;0.73;;;7.80;96.60;;;;;;5003913;28;20079;-49
2022/01/09 09:27:20;;;;;;;1.52;0.80;;;7.80;96.70;;;;;;5008131;28;20033;-49
2022/01/09 09:29:46;;;;;;;1.55;0.50;;;7.70;96.70;;;;;;5009790;28;20054;-50
2022/01/09 09:32:13;;;;;;;5.20;0.80;;;7.80;96.80;;;;;;5004933;28;20077;-49
2022/01/09 09:34:39;;;;;;;1.75;0.60;;;7.80;96.80;;;;;;5008668;28;20103;-49
2022/01/09 09:37:06;;;;;;;1.77;0.65;;;7.80;96.90;;;;;;5007398;28;20030;-49
2022/01/09 09:39:32;;;;;;;0.40;0.40;;;7.80;97.00;;;;;;5005167;28;20022;-49
2022/01/09 09:42:00;;;;;;;1.73;0.65;;;7.80;96.90;;;;;;5009339;28;20040;-49
2022/01/09 09:44:25;;;;;;;2.15;1.27;;;7.80;96.90;;;;;;5010466;28;20040;-49
2022/01/09 09:46:53;;;;;;;0.80;0.80;;;7.80;96.90;;;;;;5004836;28;20087;-49
2022/01/09 09:49:20;;;;;;;2.17;0.93;;;7.80;97.10;;;;;;5003002;28;20026;-49
2022/01/09 09:51:46;;;;;;;4.10;1.00;;;7.80;97.10;;;;;;5004131;28;20436;-49
2022/01/09 09:54:11;;;;;;;0.80;0.50;;;7.80;97.10;;;;;;5006180;28;20022;-49
2022/01/09 09:56:37;;;;;;;1.55;0.52;;;7.80;97.10;;;;;;5004241;28;20117;-49
2022/01/09 09:59:03;;;;;;;3.83;0.80;;;7.90;97.20;;;;;;5005095;28;20092;-50
2022/01/09 10:01:31;;;;;;;6.40;0.82;;;7.90;97.30;;;;;;5005183;28;20034;-50
2022/01/09 10:04:00;;;;;;;11.23;1.27;;;7.90;97.30;;;;;;5006664;28;20033;-49
2022/01/09 10:06:42;;;;;;;1.80;0.60;;;7.90;97.30;;;;;;5003635;28;20030;-50
2022/01/09 10:09:11;;;;;;;1.25;0.55;;;7.90;97.40;;;;;;5002770;28;20103;-50
2022/01/09 10:11:58;;;;;;;5.40;0.63;;;7.90;97.60;;;;;;4995237;28;20042;-49
2022/01/09 10:14:32;;;;;;;3.80;0.90;;;7.90;97.10;;;;;;5004804;28;20033;-49
2022/01/09 10:17:09;;;;;;;1.85;0.70;;;7.90;97.40;;;;;;5005695;28;20538;-50
2022/01/09 10:20:04;;;;;;;4.03;1.10;;;8.00;97.40;;;;;;5002159;28;20037;-50
2022/01/09 10:22:36;;;;;;;2.50;0.80;;;8.00;97.50;;;;;;5002951;28;20410;-49
2022/01/09 10:25:25;;;;;;;8.13;1.73;;;8.00;97.70;;;;;;5004679;28;20112;-49
2022/01/09 10:27:57;;;;;;;1.30;0.80;;;8.00;97.60;;;;;;5003626;28;20034;-49
2022/01/09 10:30:26;;;;;;;0.20;0.20;;;8.00;97.60;;;;;;5001541;28;20597;-49
2022/01/09 10:33:01;;;;;;;2.63;0.63;;;8.10;97.80;;;;;;5000182;28;20038;-49
2022/01/09 10:35:28;;;;;;;1.65;0.73;;;8.10;97.70;;;;;;5003159;28;20021;-49
2022/01/09 10:38:11;;;;;;;4.32;1.13;;;8.10;97.90;;;;;;5006519;28;20350;-49
2022/01/09 10:40:38;;;;;;;5.15;1.17;;;8.10;98.00;;;;;;4996620;28;20062;-50
2022/01/09 10:43:12;;;;;;;1.35;0.75;;;8.10;98.70;;;;;;5005326;28;20038;-49
2022/01/09 10:45:41;;;;;;;5.97;1.52;;;8.20;98.50;;;;;;5002935;28;20104;-50
2022/01/09 10:48:16;;;;;;;1.15;0.98;;;8.20;98.50;;;;;;4998543;28;20422;-49
2022/01/09 10:50:43;;;;;;;0.55;0.55;;;8.20;98.70;;;;;;5004251;28;20118;-49
2022/01/09 10:53:17;;;;;;;0.30;0.30;;;8.30;99.10;;;;;;5004271;28;20105;-49
2022/01/09 10:55:45;;;;;;;2.38;0.82;;;8.30;99.10;;;;;;5003428;28;20019;-50
2022/01/09 10:58:18;;;;;;;0.38;0.38;;;8.30;99.00;;;;;;5004572;28;20105;-50
2022/01/09 11:00:45;;;;;;;1.75;0.60;;;8.40;99.20;;;;;;5003240;28;20064;-50
2022/01/09 11:03:10;;;;;;;2.53;0.57;;;8.40;99.20;;;;;;5004378;28;20506;-49
2022/01/09 11:05:37;;;;;;;0.65;0.65;;;8.40;99.10;;;;;;5003560;28;20034;-49
2022/01/09 11:08:03;;;;;;;1.55;0.55;;;8.40;99.20;;;;;;5002322;28;20051;-49
2022/01/09 11:10:30;;;;;;;0.98;0.60;;;8.40;99.20;;;;;;4999088;28;20353;-49
2022/01/09 11:12:59;;;;;;;1.08;0.60;;;8.40;98.90;;;;;;5002799;28;20511;-49
2022/01/09 11:15:40;;;;;;;2.83;0.50;;;8.40;99.30;;;;;;5003461;28;20019;-50
2022/01/09 11:18:07;;;;;;;1.52;0.88;;;8.40;99.40;;;;;;4997668;28;20041;-49
2022/01/09 11:20:34;;;;;;;1.45;0.73;;;8.40;99.40;;;;;;5001609;28;20019;-49
2022/01/09 11:23:02;;;;;;;1.42;0.75;;;8.40;99.60;;;;;;5000410;28;20396;-49
2022/01/09 11:25:38;;;;;;;2.65;0.90;;;8.50;99.40;;;;;;5001405;28;20030;-49
2022/01/09 11:28:18;;;;;;;1.85;0.98;;;8.50;99.30;;;;;;5001349;28;20034;-49
2022/01/09 11:31:25;;;;;;;3.70;0.93;;;8.60;99.50;;;;;;5003255;28;20085;-49
2022/01/09 11:34:21;;;;;;;0.32;0.32;;;8.60;99.40;;;;;;4987812;28;20042;-49
2022/01/09 11:37:08;;;;;;;0.30;0.30;;;8.60;99.50;;;;;;5007185;28;20455;-51
2022/01/09 11:39:38;;;;;;;0.57;0.57;;;8.60;99.50;;;;;;5005478;28;20034;-49
2022/01/09 11:42:12;;;;;;;2.17;0.60;;;8.60;99.70;;;;;;5006178;28;20034;-49
2022/01/09 11:44:52;;;;;;;1.35;0.60;;;8.60;99.50;;;;;;5006940;28;20309;-50
2022/01/09 11:47:19;;;;;;;5.43;1.13;;;8.50;99.70;;;;;;5003262;28;20037;-49
2022/01/09 11:49:53;;;;;;;5.55;1.10;;;8.50;99.40;;;;;;5005388;28;20029;-49
2022/01/09 11:52:24;;;;;;;1.38;0.95;;;8.50;99.50;;;;;;5005836;28;20042;-49
2022/01/09 11:54:54;;;;;;;0.20;0.20;;;8.50;99.40;;;;;;5008812;28;20022;-50
2022/01/09 11:58:00;;;;;;;2.92;1.40;;;8.50;99.50;;;;;;5003398;28;20026;-50
2022/01/09 12:00:29;;;;;;;0.30;0.30;;;8.50;99.50;;;;;;4979931;28;20561;-51
2022/01/09 12:02:55;;;;;;;8.60;1.60;;;8.50;99.30;;;;;;4988360;28;20042;-49
2022/01/09 12:05:21;;;;;;;5.53;1.33;;;8.50;99.40;;;;;;4989974;28;20181;-49
2022/01/09 12:07:47;;;;;;;4.38;0.98;;;8.50;99.80;;;;;;4987444;28;20505;-49
2022/01/09 12:10:37;;;;;;;19.50;1.23;;;8.40;99.40;;;;;;4990140;28;20370;-50
2022/01/09 12:13:05;;;;;;;4.47;1.00;;;8.40;99.40;;;;;;4988691;28;20395;-49
2022/01/09 12:15:42;;;;;;;7.95;1.23;;;8.40;99.40;;;;;;4990148;28;20445;-49
2022/01/09 12:18:44;;;;;;;2.58;0.68;;;8.40;99.20;;;;;;4983680;28;20118;-50
2022/01/09 12:21:29;;;;;;;1.50;0.88;;;8.40;99.30;;;;;;4989680;28;20382;-49
2022/01/09 12:24:33;;;;;;;2.50;0.65;;;8.40;99.20;;;;;;4989789;28;20026;-49
2022/01/09 12:26:59;;;;;;;2.35;1.20;;;8.50;99.00;;;;;;4986789;28;20034;-49
2022/01/09 12:29:50;;;;;;;0.50;0.50;;;8.50;99.00;;;;;;4989334;28;20346;-49
2022/01/09 12:32:53;;;;;;;1.08;0.98;;;8.50;98.90;;;;;;4999686;28;20137;-50
2022/01/09 12:35:20;;;;;;;5.78;0.68;;;8.50;99.00;;;;;;5005183;28;20034;-50
2022/01/09 12:37:48;;;;;;;1.92;0.77;;;8.50;98.90;;;;;;5007043;28;20085;-49
2022/01/09 12:40:18;;;;;;;2.38;0.68;;;8.50;98.90;;;;;;5002791;28;20029;-50
2022/01/09 12:42:46;;;;;;;;;;;8.50;99.00;;;;;;5002760;28;20084;-50
2022/01/09 12:45:21;;;;;;;2.72;1.38;;;8.50;98.90;;;;;;5006215;28;19945;-49
2022/01/09 12:47:47;;;;;;;4.47;0.93;;;8.50;98.90;;;;;;5004465;28;20053;-49
2022/01/09 12:50:14;;;;;;;6.03;1.05;;;8.50;98.90;;;;;;5007429;28;20057;-49
2022/01/09 12:52:39;;;;;;;0.43;0.43;;;8.50;98.90;;;;;;5001964;28;20353;-50
2022/01/09 12:55:07;;;;;;;4.57;1.80;;;8.50;98.70;;;;;;5006558;28;20028;-50
2022/01/09 12:57:52;;;;;;;5.25;0.95;;;8.50;98.90;;;;;;4998920;28;20042;-50
2022/01/09 13:00:29;;;;;;;2.17;0.90;;;8.50;98.70;;;;;;5006299;28;20029;-50
2022/01/09 13:02:56;;;;;;;6.45;1.00;;;8.50;98.80;;;;;;5002223;28;20104;-49
2022/01/09 13:05:27;;;;;;;3.22;1.58;;;8.50;98.80;;;;;;5004317;28;20057;-49